Terminal Aerodrome Forecast
Issued by NWS

Home | Current Version | Previous Version | Text Only | Print | Product List | Glossary On
Versions: 1 2 3 4 5 6 7 8 9 10 11 12 13 14 15 16 17 18 19 20 21 22 23 24
386
FTUS46 KEKA 272320
TAFCEC
TAF
KCEC 272320Z 2800/2824 30008KT P6SM SCT007
     FM280500 17008KT P6SM OVC006
     FM281000 VRB03KT 2SM BR OVC002
     FM281800 24006KT 6SM BR BKN005
     FM282300 23009KT P6SM SCT007=

USA.gov is the U.S. government's official web portal to all federal, state and local government web resources and services.